createdAt,value
2017-08-02T00:00:01.891Z,1017.2
2017-08-02T00:01:00.875Z,1017.1
2017-08-02T00:01:31.310Z,1017.1
2017-08-02T00:02:01.714Z,1017.1
2017-08-02T00:02:32.115Z,1017.1
2017-08-02T00:03:02.636Z,1017.1
2017-08-02T00:03:33.159Z,1017.1
2017-08-02T00:04:58.927Z,1017
2017-08-02T00:05:58.007Z,1016.9
2017-08-02T00:06:57.712Z,1016.9
2017-08-02T00:07:56.918Z,1016.9
2017-08-02T00:08:56.636Z,1016.8
2017-08-02T00:09:56.104Z,1016.7
2017-08-02T00:10:55.330Z,1016.8
2017-08-02T00:11:55.021Z,1016.8
2017-08-02T00:12:54.233Z,1016.8
2017-08-02T00:13:53.834Z,1016.8
2017-08-02T00:14:53.049Z,1016.8
2017-08-02T00:15:52.642Z,1016.8
2017-08-02T00:16:23.041Z,1016.8
2017-08-02T00:17:51.200Z,1016.8
2017-08-02T00:18:50.904Z,1016.9
2017-08-02T00:19:50.107Z,1016.8
2017-08-02T00:20:49.691Z,1016.8
2017-08-02T00:21:49.174Z,1016.7
2017-08-02T00:22:48.246Z,1016.7
2017-08-02T00:23:47.835Z,1016.6
2017-08-02T00:24:47.425Z,1016.6
2017-08-02T00:25:17.709Z,1016.6
2017-08-02T00:26:45.980Z,1016.6
2017-08-02T00:27:45.704Z,1016.5
2017-08-02T00:28:44.907Z,1016.5
2017-08-02T00:29:44.371Z,1016.5
2017-08-02T00:30:43.963Z,1016.5
2017-08-02T00:31:43.066Z,1016.5
2017-08-02T00:32:42.542Z,1016.5
2017-08-02T00:33:42.245Z,1016.5
2017-08-02T00:34:41.449Z,1016.5
2017-08-02T00:35:40.661Z,1016.5
2017-08-02T00:36:40.135Z,1016.5
2017-08-02T00:37:39.854Z,1016.6
2017-08-02T00:39:38.832Z,1016.5
2017-08-02T00:40:38.181Z,1016.5
2017-08-02T00:41:37.655Z,1016.5
2017-08-02T00:42:36.749Z,1016.5
2017-08-02T00:43:36.348Z,1016.5
2017-08-02T00:44:35.822Z,1016.6
2017-08-02T00:46:34.686Z,1016.6
2017-08-02T00:47:33.885Z,1016.6
2017-08-02T00:48:33.474Z,1016.6
2017-08-02T00:49:32.684Z,1016.7
2017-08-02T00:50:32.396Z,1016.7
2017-08-02T00:51:31.608Z,1016.6
2017-08-02T00:52:31.198Z,1016.6
2017-08-02T00:53:30.285Z,1016.7
2017-08-02T00:54:29.908Z,1016.7
2017-08-02T00:55:29.377Z,1016.7
2017-08-02T00:55:59.890Z,1016.7
2017-08-02T00:56:30.574Z,1016.7
2017-08-02T00:57:01.088Z,1016.7
2017-08-02T00:57:31.523Z,1016.8
2017-08-02T00:58:27.705Z,1016.7
2017-08-02T00:59:26.907Z,1016.7
2017-08-02T01:00:26.504Z,1016.7
2017-08-02T01:01:25.709Z,1016.7
2017-08-02T01:02:24.920Z,1016.7
2017-08-02T01:03:24.632Z,1016.7
2017-08-02T01:04:23.725Z,1016.7
2017-08-02T01:05:23.315Z,1016.8
2017-08-02T01:06:22.909Z,1016.8
2017-08-02T01:07:21.993Z,1016.8
2017-08-02T01:08:21.594Z,1016.8
2017-08-02T01:09:20.793Z,1016.8
2017-08-02T01:10:20.282Z,1016.8
2017-08-02T01:11:19.875Z,1016.8
2017-08-02T01:11:50.388Z,1016.8
2017-08-02T01:12:20.671Z,1016.7
2017-08-02T01:13:18.748Z,1016.8
2017-08-02T01:14:17.947Z,1016.7
2017-08-02T01:15:17.672Z,1016.7
2017-08-02T01:16:16.879Z,1016.7
2017-08-02T01:17:16.088Z,1016.6
2017-08-02T01:18:15.769Z,1016.6
2017-08-02T01:19:15.360Z,1016.6
2017-08-02T01:20:14.451Z,1016.6
2017-08-02T01:21:14.162Z,1016.6
2017-08-02T01:22:13.240Z,1016.6
2017-08-02T01:23:12.834Z,1016.7
2017-08-02T01:24:12.055Z,1016.6
2017-08-02T01:25:11.653Z,1016.6
2017-08-02T01:26:10.747Z,1016.6
2017-08-02T01:27:10.448Z,1016.7
2017-08-02T01:28:10.043Z,1016.7
2017-08-02T01:29:09.119Z,1016.7
2017-08-02T01:30:08.588Z,1016.7
2017-08-02T01:31:08.187Z,1016.7
2017-08-02T01:32:07.400Z,1016.7
2017-08-02T01:33:06.620Z,1016.7
2017-08-02T01:34:06.216Z,1016.7
2017-08-02T01:35:05.824Z,1016.7
2017-08-02T01:36:05.032Z,1016.7
2017-08-02T01:37:04.243Z,1016.7
2017-08-02T01:38:03.959Z,1016.7
2017-08-02T01:39:03.048Z,1016.7
2017-08-02T01:40:02.529Z,1016.7
2017-08-02T01:41:02.001Z,1016.7
2017-08-02T01:42:01.599Z,1016.7
2017-08-02T01:43:00.695Z,1016.7
2017-08-02T01:44:00.401Z,1016.7
2017-08-02T01:44:59.873Z,1016.7
2017-08-02T01:45:58.967Z,1016.7
2017-08-02T01:46:58.554Z,1016.7
2017-08-02T01:47:58.133Z,1016.7
2017-08-02T01:48:57.216Z,1016.7
2017-08-02T01:49:56.943Z,1016.8
2017-08-02T01:50:56.152Z,1016.8
2017-08-02T01:51:26.666Z,1016.8
2017-08-02T01:51:57.352Z,1016.8
2017-08-02T01:52:27.854Z,1016.8
2017-08-02T01:52:58.315Z,1016.7
2017-08-02T01:53:28.716Z,1016.7
2017-08-02T01:54:53.580Z,1016.7
2017-08-02T01:55:53.283Z,1016.7
2017-08-02T01:56:52.374Z,1016.7
2017-08-02T01:57:52.076Z,1016.7
2017-08-02T01:58:51.285Z,1016.7
2017-08-02T01:59:50.757Z,1016.7
2017-08-02T02:00:50.230Z,1016.8
2017-08-02T02:01:49.697Z,1016.8
2017-08-02T02:02:48.780Z,1016.9
2017-08-02T02:03:19.454Z,1016.9
2017-08-02T02:03:49.842Z,1016.9
2017-08-02T02:04:20.106Z,1016.9
2017-08-02T02:04:50.628Z,1016.9
2017-08-02T02:05:21.141Z,1016.9
2017-08-02T02:05:51.684Z,1016.9
2017-08-02T02:06:22.216Z,1016.9
2017-08-02T02:07:45.960Z,1016.9
2017-08-02T02:08:45.168Z,1016.9
2017-08-02T02:09:44.755Z,1017
2017-08-02T02:10:43.959Z,1017
2017-08-02T02:11:43.669Z,1017
2017-08-02T02:12:42.875Z,1017
2017-08-02T02:13:42.457Z,1017
2017-08-02T02:14:41.539Z,1017.1
2017-08-02T02:15:41.127Z,1017
2017-08-02T02:16:40.724Z,1017.1
2017-08-02T02:17:39.937Z,1017.1
2017-08-02T02:18:39.543Z,1017.1
2017-08-02T02:19:38.644Z,1017.1
2017-08-02T02:20:38.237Z,1017.1
2017-08-02T02:21:37.437Z,1017.1
2017-08-02T02:22:36.647Z,1017.1
2017-08-02T02:23:07.053Z,1017.1
2017-08-02T02:23:37.607Z,1017.2
2017-08-02T02:24:08.003Z,1017.2
2017-08-02T02:24:38.532Z,1017.1
2017-08-02T02:25:35.216Z,1017.2
2017-08-02T02:26:34.691Z,1017.1
2017-08-02T02:27:33.789Z,1017.1
2017-08-02T02:28:33.004Z,1017.1
2017-08-02T02:29:32.711Z,1017.1
2017-08-02T02:30:31.806Z,1017.1
2017-08-02T02:31:31.508Z,1017.1
2017-08-02T02:32:30.727Z,1017.1
2017-08-02T02:33:30.443Z,1017.1
2017-08-02T02:34:29.401Z,1017.2
2017-08-02T02:35:29.133Z,1017.1
2017-08-02T02:36:28.356Z,1017.1
2017-08-02T02:37:27.947Z,1017.1
2017-08-02T02:38:27.176Z,1017.1
2017-08-02T02:39:26.382Z,1017.1
2017-08-02T02:40:26.110Z,1017.1
2017-08-02T02:41:25.202Z,1017.1
2017-08-02T02:42:24.932Z,1017.2
2017-08-02T02:43:24.146Z,1017.1
2017-08-02T02:44:23.741Z,1017.2
2017-08-02T02:45:23.089Z,1017.2
2017-08-02T02:45:53.489Z,1017.2
2017-08-02T02:47:21.773Z,1017.2
2017-08-02T02:48:21.122Z,1017.2
2017-08-02T02:49:20.379Z,1017.2
2017-08-02T02:50:19.865Z,1017.2
2017-08-02T02:51:19.466Z,1017.2
2017-08-02T02:52:18.541Z,1017.3
2017-08-02T02:53:18.241Z,1017.3
2017-08-02T02:54:17.460Z,1017.3
2017-08-02T02:55:16.553Z,1017.3
2017-08-02T02:56:16.259Z,1017.3
2017-08-02T02:57:15.365Z,1017.3
2017-08-02T02:58:14.962Z,1017.4
2017-08-02T02:59:14.170Z,1017.4
2017-08-02T03:00:13.890Z,1017.4
2017-08-02T03:01:13.094Z,1017.4
2017-08-02T03:01:43.615Z,1017.4
2017-08-02T03:02:14.144Z,1017.4
2017-08-02T03:03:11.718Z,1017.4
2017-08-02T03:04:11.075Z,1017.4
2017-08-02T03:05:10.787Z,1017.4
2017-08-02T03:06:09.871Z,1017.5
2017-08-02T03:07:09.594Z,1017.5
2017-08-02T03:08:08.682Z,1017.5
2017-08-02T03:09:08.384Z,1017.5
2017-08-02T03:10:07.470Z,1017.6
2017-08-02T03:11:06.693Z,1017.6
2017-08-02T03:12:06.285Z,1017.6
2017-08-02T03:13:05.875Z,1017.6
2017-08-02T03:14:05.081Z,1017.6
2017-08-02T03:15:04.672Z,1017.6
2017-08-02T03:17:03.174Z,1017.6
2017-08-02T03:18:02.781Z,1017.7
2017-08-02T03:19:01.979Z,1017.7
2017-08-02T03:20:01.201Z,1017.7
2017-08-02T03:21:00.912Z,1017.7
2017-08-02T03:21:59.882Z,1017.7
2017-08-02T03:22:59.599Z,1017.7
2017-08-02T03:23:59.071Z,1017.8
2017-08-02T03:24:58.048Z,1017.8
2017-08-02T03:25:57.633Z,1017.8
2017-08-02T03:26:56.867Z,1017.8
2017-08-02T03:27:56.452Z,1017.9
2017-08-02T03:28:55.663Z,1017.8
2017-08-02T03:29:54.877Z,1018
2017-08-02T03:30:54.582Z,1018
2017-08-02T03:31:25.125Z,1018
2017-08-02T03:31:55.405Z,1018
2017-08-02T03:32:25.794Z,1018
2017-08-02T03:33:52.449Z,1017.9
2017-08-02T03:34:52.158Z,1017.9
2017-08-02T03:35:51.361Z,1017.9
2017-08-02T03:36:50.574Z,1018
2017-08-02T03:37:49.926Z,1018
2017-08-02T03:38:49.390Z,1018
2017-08-02T03:39:49.002Z,1018
2017-08-02T03:40:48.205Z,1018
2017-08-02T03:41:47.405Z,1018
2017-08-02T03:42:46.870Z,1017.9
2017-08-02T03:43:46.568Z,1017.9
2017-08-02T03:44:45.640Z,1017.9
2017-08-02T03:45:45.113Z,1017.9
2017-08-02T03:47:44.109Z,1017.9
2017-08-02T03:48:43.312Z,1017.9
2017-08-02T03:49:42.522Z,1017.9
2017-08-02T03:50:42.114Z,1017.9
2017-08-02T03:51:41.594Z,1017.9
2017-08-02T03:52:40.803Z,1017.9
2017-08-02T03:53:40.019Z,1017.9
2017-08-02T03:54:10.530Z,1017.9
2017-08-02T03:54:41.036Z,1017.9
2017-08-02T03:55:11.549Z,1017.9
2017-08-02T03:56:38.297Z,1017.9
2017-08-02T03:57:37.506Z,1017.9
2017-08-02T03:58:37.106Z,1017.9
2017-08-02T03:59:36.310Z,1017.9
2017-08-02T04:00:35.519Z,1017.9
2017-08-02T04:01:35.232Z,1018
2017-08-02T04:02:34.314Z,1018
2017-08-02T04:03:33.917Z,1018
2017-08-02T04:04:33.113Z,1017.9
2017-08-02T04:05:32.827Z,1017.9
2017-08-02T04:06:32.028Z,1018
2017-08-02T04:07:31.240Z,1018
2017-08-02T04:08:30.721Z,1018
2017-08-02T04:09:29.928Z,1018
2017-08-02T04:10:29.653Z,1018
2017-08-02T04:11:28.853Z,1017.9
2017-08-02T04:12:28.450Z,1017.9
2017-08-02T04:12:58.983Z,1017.9
2017-08-02T04:13:29.495Z,1018
2017-08-02T04:14:00.013Z,1018
2017-08-02T04:15:26.285Z,1018
2017-08-02T04:16:25.489Z,1018
2017-08-02T04:17:25.189Z,1018
2017-08-02T04:18:24.281Z,1018
2017-08-02T04:19:23.866Z,1018
2017-08-02T04:20:23.074Z,1018
2017-08-02T04:21:22.670Z,1018
2017-08-02T04:22:21.767Z,1017.9
2017-08-02T04:23:21.350Z,1018
2017-08-02T04:23:51.853Z,1018
2017-08-02T04:24:22.241Z,1018
2017-08-02T04:24:52.645Z,1018
2017-08-02T04:25:23.042Z,1018
2017-08-02T04:25:53.577Z,1018
2017-08-02T04:27:18.840Z,1018
2017-08-02T04:28:18.424Z,1018.1
2017-08-02T04:29:17.528Z,1018.1
2017-08-02T04:30:17.235Z,1018.1
2017-08-02T04:31:16.437Z,1018.1
2017-08-02T04:32:15.641Z,1018
2017-08-02T04:33:15.348Z,1018
2017-08-02T04:34:14.545Z,1018
2017-08-02T04:35:13.754Z,1018.1
2017-08-02T04:36:13.465Z,1018.1
2017-08-02T04:37:12.558Z,1018.1
2017-08-02T04:38:12.258Z,1018.1
2017-08-02T04:39:11.224Z,1018.1
2017-08-02T04:40:10.946Z,1018.2
2017-08-02T04:41:09.920Z,1018.1
2017-08-02T04:42:09.638Z,1018.2
2017-08-02T04:43:08.853Z,1018.2
2017-08-02T04:44:08.081Z,1018.2
2017-08-02T04:45:07.674Z,1018.1
2017-08-02T04:46:07.143Z,1018.1
2017-08-02T04:47:06.344Z,1018.2
2017-08-02T04:48:06.046Z,1018.2
2017-08-02T04:49:05.007Z,1018.2
2017-08-02T04:50:04.722Z,1018.3
2017-08-02T04:51:03.827Z,1018.3
2017-08-02T04:52:03.405Z,1018.3
2017-08-02T04:53:02.756Z,1018.3
2017-08-02T04:54:01.968Z,1018.3
2017-08-02T04:55:01.688Z,1018.3
2017-08-02T04:56:00.785Z,1018.3
2017-08-02T04:57:00.261Z,1018.3
2017-08-02T04:57:59.852Z,1018.4
2017-08-02T04:58:59.071Z,1018.3
2017-08-02T04:59:58.532Z,1018.3
2017-08-02T05:00:57.675Z,1018.3
2017-08-02T05:01:56.878Z,1018.4
2017-08-02T05:03:55.982Z,1018.4
2017-08-02T05:04:55.197Z,1018.4
2017-08-02T05:06:54.079Z,1018.5
2017-08-02T05:07:53.169Z,1018.5
2017-08-02T05:08:53.021Z,1018.5
2017-08-02T05:09:51.984Z,1018.4
2017-08-02T05:10:51.475Z,1018.4
2017-08-02T05:12:50.071Z,1018.6
2017-08-02T05:13:49.560Z,1018.6
2017-08-02T05:14:49.273Z,1018.6
2017-08-02T05:16:48.025Z,1018.6
2017-08-02T05:17:46.992Z,1018.6
2017-08-02T05:18:46.701Z,1018.6
2017-08-02T05:20:45.299Z,1018.7
2017-08-02T05:21:15.690Z,1018.7
2017-08-02T05:21:46.095Z,1018.6
2017-08-02T05:22:16.625Z,1018.6
2017-08-02T05:22:47.141Z,1018.6
2017-08-02T05:23:17.654Z,1018.6
2017-08-02T05:24:43.040Z,1018.7
2017-08-02T05:25:42.240Z,1018.7
2017-08-02T05:26:41.601Z,1018.7
2017-08-02T05:27:41.200Z,1018.7
2017-08-02T05:28:40.290Z,1018.8
2017-08-02T05:29:39.498Z,1018.8
2017-08-02T05:31:38.601Z,1018.8
2017-08-02T05:32:37.807Z,1018.8
2017-08-02T05:33:37.000Z,1018.7
2017-08-02T05:34:36.700Z,1018.7
2017-08-02T05:35:35.900Z,1018.8
2017-08-02T05:36:35.607Z,1018.7
2017-08-02T05:37:34.831Z,1018.8
2017-08-02T05:38:33.927Z,1018.8
2017-08-02T05:39:33.637Z,1018.8
2017-08-02T05:40:32.975Z,1018.9
2017-08-02T05:41:32.181Z,1018.8
2017-08-02T05:42:31.387Z,1018.8
2017-08-02T05:43:31.096Z,1018.7
2017-08-02T05:44:30.195Z,1018.7
2017-08-02T05:45:29.787Z,1018.7
2017-08-02T05:46:28.977Z,1018.6
2017-08-02T05:47:28.674Z,1018.6
2017-08-02T05:48:28.147Z,1018.6
2017-08-02T05:49:27.365Z,1018.6
2017-08-02T05:50:26.450Z,1018.6
2017-08-02T05:51:26.151Z,1018.6
2017-08-02T05:52:25.362Z,1018.5
2017-08-02T05:53:24.974Z,1018.6
2017-08-02T05:54:24.201Z,1018.6
2017-08-02T05:55:23.570Z,1018.6
2017-08-02T05:56:22.771Z,1018.6
2017-08-02T05:57:22.346Z,1018.6
2017-08-02T05:58:21.445Z,1018.6
2017-08-02T05:59:21.150Z,1018.6
2017-08-02T06:00:20.351Z,1018.6
2017-08-02T06:01:19.710Z,1018.6
2017-08-02T06:01:49.991Z,1018.6
2017-08-02T06:03:18.666Z,1018.6
2017-08-02T06:03:49.187Z,1018.6
2017-08-02T06:04:19.577Z,1018.6
2017-08-02T06:05:17.526Z,1018.7
2017-08-02T06:05:48.039Z,1018.7
2017-08-02T06:12:12.897Z,1018.7
2017-08-02T06:13:12.482Z,1018.7
2017-08-02T06:13:42.884Z,1018.7
2017-08-02T06:14:13.396Z,1018.7
2017-08-02T06:14:43.920Z,1018.7
2017-08-02T06:15:14.446Z,1018.7
2017-08-02T06:15:44.963Z,1018.7
2017-08-02T06:17:09.838Z,1018.6
2017-08-02T06:18:09.546Z,1018.6
2017-08-02T06:19:08.508Z,1018.6
2017-08-02T06:21:07.615Z,1018.6
2017-08-02T06:22:06.698Z,1018.6
2017-08-02T06:24:05.682Z,1018.6
2017-08-02T06:25:05.154Z,1018.6
2017-08-02T06:26:04.352Z,1018.6
2017-08-02T06:27:03.954Z,1018.6
2017-08-02T06:28:03.044Z,1018.6
2017-08-02T06:29:02.749Z,1018.6
2017-08-02T06:30:01.849Z,1018.6
2017-08-02T06:32:00.610Z,1018.5
2017-08-02T06:32:59.971Z,1018.5
2017-08-02T06:33:59.451Z,1018.5
2017-08-02T06:34:58.673Z,1018.5
2017-08-02T06:35:58.264Z,1018.5
2017-08-02T06:36:57.468Z,1018.5
2017-08-02T06:37:57.104Z,1018.5
2017-08-02T06:38:56.212Z,1018.5
2017-08-02T06:39:55.676Z,1018.5
2017-08-02T06:40:55.157Z,1018.5
2017-08-02T06:41:54.747Z,1018.5
2017-08-02T06:42:54.217Z,1018.5
2017-08-02T06:43:53.302Z,1018.5
2017-08-02T06:44:52.998Z,1018.5
2017-08-02T06:45:23.392Z,1018.5
2017-08-02T06:46:51.659Z,1018.5
2017-08-02T06:47:50.737Z,1018.5
2017-08-02T06:48:50.221Z,1018.5
2017-08-02T06:49:49.698Z,1018.5
2017-08-02T06:50:49.280Z,1018.5
2017-08-02T06:51:48.361Z,1018.5
2017-08-02T06:52:48.079Z,1018.5
2017-08-02T06:54:46.671Z,1018.5
2017-08-02T06:55:46.371Z,1018.5
2017-08-02T06:56:16.760Z,1018.5
2017-08-02T06:56:47.156Z,1018.5
2017-08-02T06:57:44.848Z,1018.5
2017-08-02T06:58:44.562Z,1018.5
2017-08-02T06:59:43.764Z,1018.5
2017-08-02T07:00:43.118Z,1018.5
2017-08-02T07:01:13.521Z,1018.5
2017-08-02T07:02:41.790Z,1018.5
2017-08-02T07:03:41.505Z,1018.5
2017-08-02T07:04:40.719Z,1018.5
2017-08-02T07:05:39.920Z,1018.5
2017-08-02T07:06:39.500Z,1018.5
2017-08-02T07:07:38.697Z,1018.5
2017-08-02T07:08:38.170Z,1018.5
2017-08-02T07:09:37.879Z,1018.5
2017-08-02T07:10:37.097Z,1018.5
2017-08-02T07:11:07.614Z,1018.5
2017-08-02T07:11:38.118Z,1018.5
2017-08-02T07:12:08.652Z,1018.5
2017-08-02T07:13:35.528Z,1018.5
2017-08-02T07:14:34.751Z,1018.5
2017-08-02T07:15:34.346Z,1018.5
2017-08-02T07:16:33.557Z,1018.5
2017-08-02T07:17:32.786Z,1018.5
2017-08-02T07:18:32.426Z,1018.5
2017-08-02T07:19:31.633Z,1018.5
2017-08-02T07:20:31.226Z,1018.5
2017-08-02T07:22:29.827Z,1018.5
2017-08-02T07:23:00.104Z,1018.5
2017-08-02T07:23:30.509Z,1018.5
2017-08-02T07:24:01.079Z,1018.5
2017-08-02T07:24:31.477Z,1018.5
2017-08-02T07:25:28.177Z,1018.5
2017-08-02T07:26:27.378Z,1018.5
2017-08-02T07:27:26.972Z,1018.5
2017-08-02T07:28:26.578Z,1018.5
2017-08-02T07:29:25.786Z,1018.5
2017-08-02T07:30:25.390Z,1018.5
2017-08-02T07:31:24.488Z,1018.5
2017-08-02T07:32:24.188Z,1018.5
2017-08-02T07:33:23.403Z,1018.5
2017-08-02T07:34:23.104Z,1018.5
2017-08-02T07:35:22.317Z,1018.5
2017-08-02T07:36:21.910Z,1018.5
2017-08-02T07:37:21.121Z,1018.5
2017-08-02T07:38:20.705Z,1018.5
2017-08-02T07:39:20.172Z,1018.5
2017-08-02T07:40:19.155Z,1018.5
2017-08-02T07:40:49.543Z,1018.5
2017-08-02T07:41:19.839Z,1018.5
2017-08-02T07:41:50.254Z,1018.5
2017-08-02T07:42:20.541Z,1018.5
2017-08-02T07:42:50.821Z,1018.5
2017-08-02T07:44:17.198Z,1018.5
2017-08-02T07:45:16.397Z,1018.5
2017-08-02T07:46:15.602Z,1018.5
2017-08-02T07:47:15.070Z,1018.5
2017-08-02T07:48:14.645Z,1018.5
2017-08-02T07:49:14.239Z,1018.5
2017-08-02T07:50:13.449Z,1018.5
2017-08-02T07:51:12.660Z,1018.5
2017-08-02T07:51:43.177Z,1018.5
2017-08-02T07:52:13.691Z,1018.5
2017-08-02T07:52:44.207Z,1018.5
2017-08-02T07:53:14.745Z,1018.5
2017-08-02T07:53:45.260Z,1018.5
2017-08-02T07:54:15.793Z,1018.5
2017-08-02T07:54:46.310Z,1018.5
2017-08-02T07:55:16.854Z,1018.5
2017-08-02T07:55:47.241Z,1018.5
2017-08-02T07:57:09.101Z,1018.5
2017-08-02T07:58:08.811Z,1018.5
2017-08-02T07:59:08.030Z,1018.5
2017-08-02T08:00:07.618Z,1018.5
2017-08-02T08:02:06.219Z,1018.5
2017-08-02T08:03:05.845Z,1018.5
2017-08-02T08:04:05.057Z,1018.5
2017-08-02T08:04:35.458Z,1018.5
2017-08-02T08:06:03.855Z,1018.5
2017-08-02T08:07:03.326Z,1018.5
2017-08-02T08:08:02.803Z,1018.5
2017-08-02T08:09:02.405Z,1018.5
2017-08-02T08:10:01.498Z,1018.5
2017-08-02T08:11:01.102Z,1018.5
2017-08-02T08:12:00.574Z,1018.5
2017-08-02T08:13:59.558Z,1018.5
2017-08-02T08:14:59.027Z,1018.5
2017-08-02T08:15:58.376Z,1018.5
2017-08-02T08:16:57.571Z,1018.5
2017-08-02T08:17:57.292Z,1018.5
2017-08-02T08:18:56.391Z,1018.5
2017-08-02T08:19:55.979Z,1018.5
2017-08-02T08:20:55.067Z,1018.5
2017-08-02T08:21:54.764Z,1018.5
2017-08-02T08:22:53.982Z,1018.5
2017-08-02T08:23:53.683Z,1018.5
2017-08-02T08:24:23.971Z,1018.5
2017-08-02T08:24:54.488Z,1018.5
2017-08-02T08:26:51.956Z,1018.5
2017-08-02T08:27:51.051Z,1018.5
2017-08-02T08:28:50.516Z,1018.5
2017-08-02T08:29:50.018Z,1018.5
2017-08-02T08:30:49.733Z,1018.5
2017-08-02T08:31:48.823Z,1018.5
2017-08-02T08:32:48.449Z,1018.5
2017-08-02T08:33:47.921Z,1018.5
2017-08-02T08:34:47.139Z,1018.5
2017-08-02T08:35:17.663Z,1018.5
2017-08-02T08:35:48.066Z,1018.5
2017-08-02T08:36:18.457Z,1018.5
2017-08-02T08:36:48.841Z,1018.5
2017-08-02T08:37:45.309Z,1018.5
2017-08-02T08:38:44.897Z,1018.5
2017-08-02T08:39:44.107Z,1019.8
2017-08-02T08:40:43.699Z,1019.8
2017-08-02T08:41:42.902Z,1019.8
2017-08-02T08:42:42.490Z,1019.8
2017-08-02T08:43:42.207Z,1019.8
2017-08-02T08:44:41.420Z,1019.8
2017-08-02T08:45:40.617Z,1019.8
2017-08-02T08:46:40.342Z,1019.8
2017-08-02T08:47:39.551Z,1019.8
2017-08-02T08:48:39.254Z,1019.8
2017-08-02T08:49:38.459Z,1019.8
2017-08-02T08:50:37.937Z,1019.8
2017-08-02T08:51:08.451Z,1019.8
2017-08-02T08:51:38.969Z,1019.8
2017-08-02T08:52:09.496Z,1019.8
2017-08-02T08:53:36.257Z,1019.8
2017-08-02T08:54:35.473Z,1019.8
2017-08-02T08:55:35.067Z,1019.8
2017-08-02T08:56:34.643Z,1019.8
2017-08-02T08:57:34.112Z,1019.8
2017-08-02T08:58:33.205Z,1019.8
2017-08-02T08:59:32.919Z,1019.8
2017-08-02T09:00:31.993Z,1019.8
2017-08-02T09:02:30.959Z,1019.8
2017-08-02T09:03:30.546Z,1019.8
2017-08-02T09:06:29.038Z,1019.8
2017-08-02T09:07:28.133Z,1019.8
2017-08-02T09:08:27.839Z,1019.8
2017-08-02T09:09:27.047Z,1019.8
2017-08-02T09:10:26.637Z,1019.8
2017-08-02T09:11:26.115Z,1019.8
2017-08-02T09:12:25.201Z,1019.8
2017-08-02T09:13:24.911Z,1019.8
2017-08-02T09:14:24.520Z,1019.8
2017-08-02T09:15:23.605Z,1019.8
2017-08-02T09:16:23.083Z,1019.8
2017-08-02T09:18:22.176Z,1019.8
2017-08-02T09:24:18.732Z,1019.8
2017-08-02T09:27:16.992Z,1019.8
2017-08-02T09:29:15.778Z,1019.8
2017-08-02T09:31:14.508Z,1019.8
2017-08-02T09:31:45.103Z,1019.8
2017-08-02T09:32:15.619Z,1019.8
2017-08-02T09:34:13.218Z,1019.8
2017-08-02T09:34:43.504Z,1019.8
2017-08-02T09:37:11.288Z,1019.8
2017-08-02T09:39:10.286Z,1019.8
2017-08-02T09:41:09.272Z,1019.8
2017-08-02T09:42:08.481Z,1019.8
2017-08-02T09:44:07.226Z,1019.8
2017-08-02T09:44:37.626Z,1019.8
2017-08-02T09:45:08.034Z,1019.8
2017-08-02T09:45:38.553Z,1019.8
2017-08-02T09:48:05.333Z,1019.8
2017-08-02T09:52:03.211Z,1019.8
2017-08-02T09:54:01.679Z,1019.9
2017-08-02T09:55:01.280Z,1019.9
2017-08-02T09:56:00.982Z,1019.9
2017-08-02T09:57:59.582Z,1019.8
2017-08-02T09:59:58.443Z,1019.8
2017-08-02T10:00:58.144Z,1019.8
2017-08-02T10:01:57.339Z,1019.8
2017-08-02T10:02:56.808Z,1019.8
2017-08-02T10:03:27.319Z,1019.8
2017-08-02T10:06:54.893Z,1019.8
2017-08-02T10:07:54.480Z,1019.7
2017-08-02T10:08:53.682Z,1019.7
2017-08-02T10:11:52.050Z,1019.8
2017-08-02T10:12:51.634Z,1019.8
2017-08-02T10:13:50.774Z,1019.8
2017-08-02T10:14:21.045Z,1019.8
2017-08-02T10:15:49.835Z,1019.8
2017-08-02T10:16:20.236Z,1019.8
2017-08-02T10:16:50.509Z,1019.8
2017-08-02T10:17:20.915Z,1019.8
2017-08-02T10:18:48.074Z,1019.8
2017-08-02T10:20:47.050Z,1019.7
2017-08-02T10:21:46.637Z,1019.7
2017-08-02T10:22:46.341Z,1019.7
2017-08-02T10:24:45.317Z,1019.7
2017-08-02T10:25:15.717Z,1019.7
2017-08-02T10:25:46.228Z,1019.7
2017-08-02T10:26:44.308Z,1019.6
2017-08-02T10:27:43.394Z,1019.6
2017-08-02T10:29:42.363Z,1019.7
2017-08-02T10:31:41.461Z,1019.7
2017-08-02T10:32:40.665Z,1019.7
2017-08-02T10:33:40.254Z,1019.7
2017-08-02T10:35:39.118Z,1019.6
2017-08-02T10:36:38.716Z,1019.6
2017-08-02T10:37:38.465Z,1019.6
2017-08-02T10:38:37.676Z,1019.6
2017-08-02T10:39:37.385Z,1019.6
2017-08-02T10:40:36.583Z,1019.6
2017-08-02T10:43:35.091Z,1019.5
2017-08-02T10:44:34.691Z,1019.5
2017-08-02T10:49:32.245Z,1019.5
2017-08-02T10:50:31.701Z,1019.4
2017-08-02T10:51:31.178Z,1019.5
2017-08-02T10:52:30.373Z,1019.5
2017-08-02T10:56:28.630Z,1019.5
2017-08-02T10:59:27.131Z,1019.5
2017-08-02T11:00:26.342Z,1019.4
2017-08-02T11:01:26.047Z,1019.4
2017-08-02T11:02:25.249Z,1019.4
2017-08-02T11:03:24.840Z,1019.4
2017-08-02T11:04:24.427Z,1019.4
2017-08-02T11:05:24.032Z,1019.4
2017-08-02T11:06:23.226Z,1019.3
2017-08-02T11:07:23.083Z,1019.3
2017-08-02T11:08:22.431Z,1019.3
2017-08-02T11:09:22.133Z,1019.3
2017-08-02T11:10:21.338Z,1019.3
2017-08-02T11:11:21.048Z,1019.3
2017-08-02T11:13:20.151Z,1019.3
2017-08-02T11:14:19.633Z,1019.3
2017-08-02T11:15:18.851Z,1019.4
2017-08-02T11:16:18.442Z,1019.4
2017-08-02T11:17:18.019Z,1019.4
2017-08-02T11:30:11.326Z,1019.2
2017-08-02T11:32:10.427Z,1019.2
2017-08-02T11:35:08.813Z,1019.2
2017-08-02T11:44:04.558Z,1019
2017-08-02T11:47:02.930Z,1019
2017-08-02T11:52:00.572Z,1019
2017-08-02T11:53:00.176Z,1019
2017-08-02T11:54:58.784Z,1019
2017-08-02T11:56:58.029Z,1019
2017-08-02T11:57:28.543Z,1019
2017-08-02T11:57:59.058Z,1019
2017-08-02T11:58:29.341Z,1019
2017-08-02T11:58:59.727Z,1019
2017-08-02T11:59:56.705Z,1019
2017-08-02T12:00:55.905Z,1018.9
2017-08-02T12:01:55.630Z,1019
2017-08-02T12:02:55.223Z,1018.9
2017-08-02T12:03:54.804Z,1019
2017-08-02T12:05:53.407Z,1018.9
2017-08-02T12:06:53.115Z,1019
2017-08-02T12:08:52.225Z,1019
2017-08-02T12:09:51.818Z,1019
2017-08-02T12:10:51.288Z,1019
2017-08-02T12:11:50.519Z,1019
2017-08-02T12:12:50.227Z,1019.2
2017-08-02T12:13:49.804Z,1019
2017-08-02T12:14:49.383Z,1019
2017-08-02T12:15:48.854Z,1019
2017-08-02T12:16:48.056Z,1019
2017-08-02T12:17:47.653Z,1019
2017-08-02T12:18:47.346Z,1019
2017-08-02T12:19:17.742Z,1019
2017-08-02T12:19:48.266Z,1018.9
2017-08-02T12:21:46.001Z,1018.9
2017-08-02T12:24:44.503Z,1019
2017-08-02T12:25:44.091Z,1019
2017-08-02T12:26:43.557Z,1019
2017-08-02T12:27:43.249Z,1019
2017-08-02T12:29:42.253Z,1018.9
2017-08-02T12:30:41.731Z,1018.9
2017-08-02T12:31:41.094Z,1018.9
2017-08-02T12:32:40.683Z,1018.9
2017-08-02T12:33:40.391Z,1018.9
2017-08-02T12:34:39.603Z,1018.8
2017-08-02T12:35:39.311Z,1018.8
2017-08-02T12:36:38.514Z,1018.8
2017-08-02T12:37:38.107Z,1018.8
2017-08-02T12:38:37.702Z,1018.8
2017-08-02T12:39:08.226Z,1018.8
2017-08-02T12:39:38.745Z,1018.8
2017-08-02T12:40:36.949Z,1018.8
2017-08-02T12:41:36.649Z,1018.8
2017-08-02T12:42:35.730Z,1018.8
2017-08-02T12:43:35.327Z,1018.9
2017-08-02T12:44:34.930Z,1018.8
2017-08-02T12:45:34.652Z,1018.7
2017-08-02T12:46:33.875Z,1018.7
2017-08-02T12:47:33.574Z,1018.7
2017-08-02T12:48:33.317Z,1018.7
2017-08-02T12:49:32.547Z,1018.7
2017-08-02T12:50:32.153Z,1018.7
2017-08-02T12:51:31.857Z,1018.6
2017-08-02T12:52:31.341Z,1018.6
2017-08-02T12:53:30.936Z,1018.6
2017-08-02T12:54:30.637Z,1018.6
2017-08-02T12:55:01.149Z,1018.6
2017-08-02T12:55:31.693Z,1018.6
2017-08-02T12:56:02.211Z,1018.6
2017-08-02T12:56:32.721Z,1018.6
2017-08-02T12:57:28.798Z,1018.6
2017-08-02T12:58:28.653Z,1018.6
2017-08-02T12:59:27.993Z,1018.6
2017-08-02T13:00:27.705Z,1018.6
2017-08-02T13:01:27.318Z,1018.6
2017-08-02T13:02:26.517Z,1018.6
2017-08-02T13:04:25.614Z,1018.7
2017-08-02T13:05:25.330Z,1018.6
2017-08-02T13:06:24.911Z,1018.6
2017-08-02T13:07:24.620Z,1018.6
2017-08-02T13:08:23.834Z,1018.6
2017-08-02T13:09:23.421Z,1018.6
2017-08-02T13:10:23.146Z,1018.6
2017-08-02T13:11:22.855Z,1018.6
2017-08-02T13:12:22.452Z,1018.6
2017-08-02T13:13:21.670Z,1018.6
2017-08-02T13:14:21.265Z,1018.6
2017-08-02T13:15:20.854Z,1018.6
2017-08-02T13:16:20.567Z,1018.6
2017-08-02T13:17:20.050Z,1018.6
2017-08-02T13:18:19.763Z,1018.6
2017-08-02T13:19:18.990Z,1018.6
2017-08-02T13:20:18.587Z,1018.6
2017-08-02T13:22:17.571Z,1018.6
2017-08-02T13:23:17.274Z,1018.6
2017-08-02T13:25:16.254Z,1018.5
2017-08-02T13:28:15.132Z,1018.5
2017-08-02T13:29:14.777Z,1018.5